Time;durP1;ratioP1;P1;durP2;ratioP2;P2;SDS_P1;SDS_P2;PMS_P1;PMS_P2;Temp;Humidity;BMP_temperature;BMP_pressure;BME280_temperature;BME280_humidity;BME280_pressure;Samples;Min_cycle;Max_cycle;Signal;HPM_P1;HPM_P2
2022/12/06 02:12:57;;;;;;;8.17;3.23;;;;;;;-9.96;100.00;101447.80;1820451;79;22855;-71
2022/12/06 02:15:41;;;;;;;5.50;2.03;;;;;;;-9.88;100.00;101469.14;1792091;80;21065;-70
2022/12/06 02:18:15;;;;;;;5.40;2.10;;;;;;;-9.84;100.00;101468.25;1775645;80;21069;-70
2022/12/06 02:20:53;;;;;;;5.60;2.47;;;;;;;-9.83;100.00;101476.55;1790623;80;21057;-69
2022/12/06 02:23:42;;;;;;;3.60;2.17;;;;;;;-9.80;100.00;101481.77;1791056;80;21021;-70
2022/12/06 02:26:39;;;;;;;5.03;2.40;;;;;;;-9.80;100.00;101475.23;1791622;80;21068;-71
2022/12/06 02:29:35;;;;;;;2.73;2.07;;;;;;;-9.77;100.00;101477.84;1791342;80;21037;-70
2022/12/06 02:32:10;;;;;;;3.53;2.07;;;;;;;-9.76;100.00;101482.19;1791517;80;21009;-70
2022/12/06 02:34:42;;;;;;;1.93;1.60;;;;;;;-9.76;100.00;101484.80;1790833;80;21384;-70
2022/12/06 02:37:32;;;;;;;3.20;2.35;;;;;;;-9.74;100.00;101492.20;1791588;80;21060;-71
2022/12/06 02:40:17;;;;;;;2.87;2.13;;;;;;;-9.72;100.00;101496.12;1791379;80;20978;-71
2022/12/06 02:42:55;;;;;;;3.10;2.07;;;;;;;-9.72;100.00;101493.51;1791386;80;20973;-69
2022/12/06 02:45:27;;;;;;;3.07;1.80;;;;;;;-9.74;100.00;101498.75;1791580;80;21021;-70
2022/12/06 02:47:56;;;;;;;3.33;2.20;;;;;;;-9.73;100.00;101504.43;1790874;80;21084;-71
2022/12/06 02:50:37;;;;;;;3.90;2.07;;;;;;;-9.72;100.00;101497.44;1791815;80;20993;-70
2022/12/06 02:53:06;;;;;;;4.50;2.07;;;;;;;-9.72;100.00;101499.61;1791795;80;21436;-69
2022/12/06 02:55:35;;;;;;;3.33;2.10;;;;;;;-9.71;100.00;101499.19;1791748;80;20997;-71
2022/12/06 02:58:03;;;;;;;3.13;1.90;;;;;;;-9.69;100.00;101497.43;1791372;80;21056;-71
2022/12/06 03:00:38;;;;;;;1.90;1.50;;;;;;;-9.68;100.00;101505.28;1791353;80;21029;-70
2022/12/06 03:03:27;;;;;;;4.40;1.90;;;;;;;-9.66;100.00;101503.97;1791607;80;20978;-68
2022/12/06 03:06:19;;;;;;;5.30;2.00;;;;;;;-9.65;100.00;101502.66;1791672;80;21057;-69
2022/12/06 03:09:25;;;;;;;5.17;2.20;;;;;;;-9.63;100.00;101500.00;1791238;80;21534;-68
2022/12/06 03:12:00;;;;;;;4.43;2.40;;;;;;;-9.64;100.00;101498.28;1791375;80;21088;-70
2022/12/06 03:14:34;;;;;;;4.23;2.17;;;;;;;-9.65;100.00;101498.73;1790793;80;21546;-69
2022/12/06 03:17:19;;;;;;;3.70;1.87;;;;;;;-9.67;100.00;101500.45;1788661;80;21013;-69
2022/12/06 03:19:55;;;;;;;4.10;1.80;;;;;;;-9.69;100.00;101492.19;1791011;80;21029;-69
2022/12/06 03:22:32;;;;;;;2.53;1.90;;;;;;;-9.70;100.00;101504.42;1791216;80;21010;-70
2022/12/06 03:24:59;;;;;;;2.03;1.70;;;;;;;-9.70;100.00;101504.42;1790970;80;21507;-70
2022/12/06 03:27:27;;;;;;;5.00;2.10;;;;;;;-9.69;100.00;101498.73;1790786;80;21554;-70
2022/12/06 03:29:58;;;;;;;2.00;1.90;;;;;;;-9.70;100.00;101505.73;1790853;80;21553;-70
2022/12/06 03:32:28;;;;;;;3.30;2.07;;;;;;;-9.70;100.00;101500.50;1790950;80;21045;-70
2022/12/06 03:34:58;;;;;;;2.33;2.13;;;;;;;-9.71;100.00;101498.74;1763439;80;21053;-70
2022/12/06 03:37:26;;;;;;;2.80;2.00;;;;;;;-9.72;100.00;101504.84;1792828;80;21018;-71
2022/12/06 03:40:25;;;;;;;3.10;2.00;;;;;;;-9.74;100.00;101503.98;1793157;80;21072;-70
2022/12/06 03:42:52;;;;;;;3.30;2.20;;;;;;;-9.76;100.00;101508.36;1792266;80;21029;-70
2022/12/06 03:45:20;;;;;;;2.30;1.83;;;;;;;-9.77;100.00;101504.02;1790932;80;20998;-69
2022/12/06 03:47:58;;;;;;;3.00;1.97;;;;;;;-9.79;100.00;101507.05;1790991;80;21018;-70
2022/12/06 03:50:37;;;;;;;4.17;2.13;;;;;;;-9.78;100.00;101507.50;1790686;80;21044;-69
2022/12/06 03:53:04;;;;;;;5.27;2.07;;;;;;;-9.79;100.00;101503.12;1790941;80;21017;-70
2022/12/06 03:55:31;;;;;;;1.73;1.63;;;;;;;-9.80;100.00;101501.41;1790794;80;21033;-70
2022/12/06 03:57:59;;;;;;;4.37;2.73;;;;;;;-9.79;100.00;101503.12;1790616;80;21033;-69
2022/12/06 04:00:26;;;;;;;3.97;1.93;;;;;;;-9.78;100.00;101500.52;1790298;80;21540;-70
2022/12/06 04:02:54;;;;;;;3.77;2.10;;;;;;;-9.76;100.00;101506.60;1790483;80;21041;-69
2022/12/06 04:05:21;;;;;;;3.00;2.37;;;;;;;-9.78;100.00;101490.03;1790725;80;21025;-70
2022/12/06 04:07:49;;;;;;;4.93;2.07;;;;;;;-9.77;100.00;101489.62;1790529;80;21025;-70
2022/12/06 04:10:17;;;;;;;1.97;1.80;;;;;;;-9.78;100.00;101492.66;1790613;80;21546;-70
2022/12/06 04:12:59;;;;;;;2.60;2.40;;;;;;;-9.76;100.00;101490.03;1792814;80;21096;-70
2022/12/06 04:15:34;;;;;;;2.50;1.95;;;;;;;-9.76;100.00;101484.35;1794047;80;21052;-70
2022/12/06 04:18:12;;;;;;;3.07;2.27;;;;;;;-9.76;100.00;101484.35;1794174;80;20988;-70
2022/12/06 04:23:48;;;;;;;3.83;1.90;;;;;;;-9.78;100.00;101483.94;1794823;80;21067;-69
2022/12/06 04:26:18;;;;;;;4.40;2.27;;;;;;;-9.79;100.00;101478.27;1794136;80;20965;-70
2022/12/06 04:39:53;;;;;;;2.10;2.00;;;;;;;-9.79;100.00;101484.39;1794221;80;21495;-69
2022/12/06 04:45:07;;;;;;;4.20;1.97;;;;;;;-9.77;100.00;101480.46;1794143;80;21020;-70
2022/12/06 04:47:34;;;;;;;4.27;2.03;;;;;;;-9.77;100.00;101481.77;1794117;80;20962;-69
2022/12/06 04:50:02;;;;;;;2.90;2.00;;;;;;;-9.78;100.00;101476.95;1794125;80;21459;-70
2022/12/06 04:52:29;;;;;;;4.77;2.13;;;;;;;-9.78;100.00;101483.94;1793805;80;21072;-69
2022/12/06 04:54:56;;;;;;;3.23;2.17;;;;;;;-9.78;100.00;101487.42;1794076;80;21479;-71
2022/12/06 04:57:23;;;;;;;5.63;1.93;;;;;;;-9.76;100.00;101490.03;1794125;80;21048;-70
2022/12/06 04:59:50;;;;;;;4.10;2.10;;;;;;;-9.75;100.00;101489.17;1794136;80;21029;-70
2022/12/06 05:02:17;;;;;;;4.70;1.70;;;;;;;-9.75;100.00;101486.55;1794053;80;21016;-68
2022/12/06 05:04:45;;;;;;;2.00;1.80;;;;;;;-9.76;100.00;101480.87;1794065;80;21510;-70
2022/12/06 05:07:12;;;;;;;1.77;1.67;;;;;;;-9.76;100.00;101493.52;1794443;80;21017;-70
2022/12/06 05:09:40;;;;;;;3.63;1.80;;;;;;;-9.76;100.00;101493.52;1793888;80;21045;-70
2022/12/06 05:12:07;;;;;;;4.10;2.43;;;;;;;-9.74;100.00;101493.09;1792941;80;21092;-70
2022/12/06 05:14:34;;;;;;;2.20;1.73;;;;;;;-9.73;100.00;101500.50;1790574;80;21009;-70
2022/12/06 05:17:02;;;;;;;5.13;2.53;;;;;;;-9.75;100.00;101492.65;1790514;80;21025;-69
2022/12/06 05:19:30;;;;;;;6.33;2.20;;;;;;;-9.74;100.00;101491.78;1790233;80;21037;-70
2022/12/06 05:21:58;;;;;;;3.97;1.90;;;;;;;-9.71;100.00;101502.67;1790135;80;21052;-70
2022/12/06 05:24:25;;;;;;;2.30;1.70;;;;;;;-9.71;100.00;101490.89;1790398;80;21463;-70
2022/12/06 05:26:53;;;;;;;7.27;2.07;;;;;;;-9.70;100.00;101500.50;1790208;80;20982;-70
2022/12/06 05:29:20;;;;;;;4.60;1.73;;;;;;;-9.70;100.00;101500.50;1790208;80;21005;-69
2022/12/06 05:31:47;;;;;;;4.10;2.03;;;;;;;-9.67;100.00;101495.67;1790451;80;20954;-70
2022/12/06 05:34:15;;;;;;;3.23;2.00;;;;;;;-9.67;100.00;101498.29;1790221;80;21425;-70
2022/12/06 05:36:44;;;;;;;5.90;2.13;;;;;;;-9.65;100.00;101503.97;1790092;80;21025;-69
2022/12/06 05:39:11;;;;;;;4.57;2.37;;;;;;;-9.62;100.00;101505.23;1790408;80;21510;-69
2022/12/06 05:41:39;;;;;;;1.80;1.70;;;;;;;-9.60;100.00;101504.79;1790069;80;21571;-70
2022/12/06 05:44:06;;;;;;;3.40;2.10;;;;;;;-9.57;100.00;101511.33;1790237;80;21045;-69
2022/12/06 05:46:33;;;;;;;6.07;2.40;;;;;;;-9.55;100.00;101506.95;1790227;80;21025;-69
2022/12/06 05:49:01;;;;;;;2.80;2.37;;;;;;;-9.54;100.00;101506.53;1790208;80;20989;-68
2022/12/06 05:51:31;;;;;;;2.47;1.70;;;;;;;-9.51;100.00;101507.80;1790238;80;21028;-70
2022/12/06 05:54:02;;;;;;;5.13;2.20;;;;;;;-9.47;100.00;101509.97;1790684;80;21494;-70
2022/12/06 05:56:28;;;;;;;5.80;2.70;;;;;;;-9.38;100.00;101513.87;1789689;80;21042;-70
2022/12/06 05:58:55;;;;;;;2.53;2.07;;;;;;;-9.23;100.00;101511.59;1790153;80;21072;-70
2022/12/06 06:01:23;;;;;;;7.67;2.70;;;;;;;-9.11;100.00;101514.58;1789928;80;21073;-70
2022/12/06 06:03:52;;;;;;;6.83;3.07;;;;;;;-9.04;100.00;101516.27;1789386;80;21499;-69
2022/12/06 06:06:20;;;;;;;5.47;3.10;;;;;;;-8.99;100.00;101521.05;1764466;80;21097;-69
2022/12/06 06:08:49;;;;;;;2.97;2.30;;;;;;;-8.90;100.00;101525.36;1758795;81;21040;-69
2022/12/06 06:11:16;;;;;;;3.50;2.47;;;;;;;-8.85;100.00;101527.47;1758668;80;21230;-69
2022/12/06 06:13:44;;;;;;;2.53;1.77;;;;;;;-8.83;100.00;101526.59;1788359;80;21077;-70
2022/12/06 06:16:11;;;;;;;7.70;2.90;;;;;;;-8.79;100.00;101534.86;1788515;80;21066;-68
2022/12/06 06:18:38;;;;;;;3.13;2.50;;;;;;;-8.77;100.00;101531.38;1789096;80;21464;-69
2022/12/06 06:21:10;;;;;;;2.60;1.90;;;;;;;-8.71;100.00;101527.38;1788328;80;21031;-71
2022/12/06 06:23:38;;;;;;;4.00;2.30;;;;;;;-8.66;100.00;101539.56;1788547;80;20959;-71
2022/12/06 06:26:09;;;;;;;2.40;2.03;;;;;;;-8.64;100.00;101533.00;1788082;80;21034;-71
2022/12/06 06:28:36;;;;;;;9.07;2.60;;;;;;;-8.58;100.00;101525.55;1788386;80;20955;-70
2022/12/06 06:31:05;;;;;;;3.47;2.37;;;;;;;-8.53;100.00;101527.66;1788066;80;22160;-70
2022/12/06 06:33:32;;;;;;;6.83;3.10;;;;;;;-8.47;100.00;101526.31;1788122;80;21077;-69
2022/12/06 06:35:59;;;;;;;7.67;2.93;;;;;;;-8.40;100.00;101533.20;1788167;80;21065;-69
2022/12/06 06:38:28;;;;;;;8.47;3.33;;;;;;;-8.33;100.00;101522.22;1788461;80;21062;-69
2022/12/06 06:40:55;;;;;;;12.27;4.10;;;;;;;-8.24;100.00;101532.16;1775931;80;21056;-69
2022/12/06 06:43:22;;;;;;;7.37;3.03;;;;;;;-8.12;100.00;101522.45;1768846;80;21092;-69
2022/12/06 06:46:01;;;;;;;10.93;3.73;;;;;;;-7.99;100.00;101521.86;1764507;81;21450;-69
2022/12/06 06:48:31;;;;;;;5.93;3.03;;;;;;;-7.90;100.00;101532.25;1763309;81;21090;-70
2022/12/06 06:51:07;;;;;;;10.00;2.80;;;;;;;-7.84;100.00;101525.19;1764457;81;21019;-71
2022/12/06 06:53:34;;;;;;;3.87;2.67;;;;;;;-7.74;100.00;101527.70;1764299;81;21537;-72
2022/12/06 06:56:01;;;;;;;4.47;2.43;;;;;;;-7.64;100.00;101530.19;1764121;81;21032;-70
2022/12/06 06:58:28;;;;;;;5.50;2.67;;;;;;;-7.51;100.00;101532.66;1764242;80;21079;-70
2022/12/06 07:00:58;;;;;;;4.77;2.33;;;;;;;-7.38;100.00;101527.69;1772690;80;21006;-70
2022/12/06 07:03:26;;;;;;;9.50;3.30;;;;;;;-7.25;100.00;101521.36;1757201;82;21053;-68
2022/12/06 07:05:57;;;;;;;4.37;2.50;;;;;;;-7.11;100.00;101529.05;1757411;82;21038;-69
2022/12/06 07:08:25;;;;;;;5.57;3.07;;;;;;;-6.98;100.00;101524.47;1756966;82;21034;-70
2022/12/06 07:10:53;;;;;;;4.90;2.80;;;;;;;-6.87;100.00;101522.56;1776629;80;20989;-71
2022/12/06 07:13:21;;;;;;;5.60;2.83;;;;;;;-6.77;100.00;101523.27;1771857;80;21107;-69
2022/12/06 07:15:48;;;;;;;9.53;3.77;;;;;;;-6.66;100.00;101534.08;1759062;81;21566;-67
2022/12/06 07:18:16;;;;;;;24.00;8.50;;;;;;;-6.59;100.00;101526.05;1759104;81;21001;-67
2022/12/06 07:20:44;;;;;;;25.20;7.37;;;;;;;-6.49;100.00;101525.46;1759100;81;21006;-69
2022/12/06 07:23:12;;;;;;;13.47;4.63;;;;;;;-6.36;100.00;101528.74;1759419;81;21491;-70
2022/12/06 07:25:39;;;;;;;17.17;6.47;;;;;;;-6.23;100.00;101521.06;1759089;81;21033;-70
2022/12/06 07:28:06;;;;;;;23.17;9.90;;;;;;;-6.08;100.00;101522.98;1759476;81;21029;-71
2022/12/06 07:30:34;;;;;;;17.57;7.37;;;;;;;-5.95;100.00;101521.38;1758889;81;21482;-70
2022/12/06 07:33:01;;;;;;;7.77;3.43;;;;;;;-5.77;100.00;101513.98;1758740;82;21009;-70
2022/12/06 07:35:28;;;;;;;9.07;4.23;;;;;;;-5.62;100.00;101521.59;1787127;80;21060;-71
2022/12/06 07:37:55;;;;;;;8.90;2.90;;;;;;;-5.48;100.00;101520.45;1787992;80;21022;-69
2022/12/06 07:40:22;;;;;;;6.97;2.80;;;;;;;-5.37;100.00;101514.48;1780364;80;21100;-72
2022/12/06 07:45:36;;;;;;;9.97;2.97;;;;;;;-5.21;100.00;101501.83;1759483;81;21037;-69
2022/12/06 07:48:04;;;;;;;5.87;2.67;;;;;;;-5.10;100.00;101510.35;1758896;82;21033;-70
2022/12/06 07:50:32;;;;;;;9.93;2.87;;;;;;;-4.97;100.00;101502.58;1758873;81;21474;-69
2022/12/06 07:52:59;;;;;;;6.23;2.93;;;;;;;-4.81;100.00;101489.89;1758778;82;21061;-70
2022/12/06 07:55:26;;;;;;;7.90;3.00;;;;;;;-4.65;100.00;101496.98;1758404;81;21014;-70
2022/12/06 07:57:53;;;;;;;6.20;3.10;;;;;;;-4.46;100.00;101492.11;1758598;82;21057;-70
2022/12/06 08:00:22;;;;;;;8.70;3.20;;;;;;;-4.30;100.00;101499.17;1758737;81;21068;-71
2022/12/06 08:02:50;;;;;;;9.77;3.60;;;;;;;-4.21;100.00;101487.04;1759066;82;21068;-68
2022/12/06 08:05:18;;;;;;;5.17;2.67;;;;;;;-4.10;100.00;101485.42;1758957;81;21009;-69
2022/12/06 08:07:46;;;;;;;10.00;4.23;;;;;;;-3.99;100.00;101481.16;1759108;81;21040;-70
2022/12/06 08:10:14;;;;;;;41.70;14.50;;;;;;;-3.83;100.00;101487.73;1759137;81;21533;-70
2022/12/06 08:12:41;;;;;;;16.83;5.67;;;;;;;-3.73;100.00;101487.03;1762041;80;21114;-70
2022/12/06 08:15:11;;;;;;;7.10;3.60;;;;;;;-3.64;100.00;101466.08;1788480;80;21045;-70
2022/12/06 08:17:39;;;;;;;14.00;4.67;;;;;;;-3.60;100.00;101473.46;1790212;80;21052;-70
2022/12/06 08:20:08;;;;;;;13.90;3.77;;;;;;;-3.59;100.00;101481.78;1790324;80;21413;-71
2022/12/06 08:22:36;;;;;;;13.73;3.70;;;;;;;-3.49;100.00;101483.25;1790017;80;21029;-69
2022/12/06 08:25:06;;;;;;;8.93;4.00;;;;;;;-3.41;100.00;101481.72;1790519;80;21033;-71
2022/12/06 08:27:33;;;;;;;16.63;5.37;;;;;;;-3.33;100.00;101482.33;1790229;80;21037;-69
2022/12/06 08:30:06;;;;;;;11.87;4.70;;;;;;;-3.27;100.00;101482.16;1790220;80;21096;-71
2022/12/06 08:32:33;;;;;;;7.33;3.73;;;;;;;-3.22;100.00;101476.27;1791003;80;21014;-70
2022/12/06 08:35:00;;;;;;;3.93;2.87;;;;;;;-3.19;100.00;101477.94;1753477;80;21040;-73
2022/12/06 08:37:27;;;;;;;7.80;3.63;;;;;;;-3.11;100.00;101470.17;1742903;82;21036;-72
2022/12/06 08:39:54;;;;;;;19.90;4.03;;;;;;;-2.97;100.00;101470.20;1743339;82;21795;-69
2022/12/06 08:42:22;;;;;;;7.17;3.10;;;;;;;-2.81;100.00;101466.14;1742022;82;21056;-71
2022/12/06 08:59:37;;;;;;;6.97;3.23;;;;;;;-1.76;100.00;101437.28;1784082;80;22253;-73
2022/12/06 09:02:04;;;;;;;6.03;3.00;;;;;;;-1.63;100.00;101444.30;1757351;81;21072;-74
2022/12/06 09:04:32;;;;;;;5.20;2.57;;;;;;;-1.58;100.00;101440.55;1757789;82;21013;-74
2022/12/06 09:07:00;;;;;;;4.73;2.80;;;;;;;-1.51;100.00;101432.36;1757231;82;21072;-75
2022/12/06 09:09:27;;;;;;;7.63;3.13;;;;;;;-1.51;100.00;101439.85;1758730;81;21511;-76
2022/12/06 09:11:56;;;;;;;24.60;10.60;;;;;;;-1.41;100.00;101436.39;1758929;81;21078;-73
2022/12/06 09:14:23;;;;;;;15.73;5.80;;;;;;;-1.34;100.00;101429.92;1759048;81;21086;-74
2022/12/06 09:17:04;;;;;;;13.60;5.10;;;;;;;-1.31;100.00;101428.48;1759397;81;21637;-68
2022/12/06 09:19:34;;;;;;;6.95;4.12;;;;;;;-1.20;100.00;101422.27;1759635;81;21492;-67
2022/12/06 09:22:01;;;;;;;5.40;3.93;;;;;;;-1.03;100.00;101417.58;1760548;81;20971;-66
2022/12/06 09:24:28;;;;;;;6.30;3.03;;;;;;;-0.96;100.00;101415.55;1759882;81;21092;-65
2022/12/06 09:26:55;;;;;;;7.00;3.20;;;;;;;-0.89;100.00;101414.83;1759503;81;21089;-67
2022/12/06 09:29:22;;;;;;;11.40;3.20;;;;;;;-0.94;100.00;101397.75;1759380;81;21065;-65
2022/12/06 09:31:50;;;;;;;8.23;3.50;;;;;;;-0.98;100.00;101398.81;1758807;81;20961;-66
2022/12/06 09:34:17;;;;;;;9.17;3.47;;;;;;;-0.97;100.00;101388.14;1759847;81;21029;-67
2022/12/06 09:37:00;;;;;;;4.40;3.00;;;;;;;-0.87;100.00;101394.38;1760662;81;21025;-68
2022/12/06 09:39:41;;;;;;;4.97;3.00;;;;;;;-0.74;100.00;101382.77;1762168;81;21040;-68
2022/12/06 09:42:49;;;;;;;4.77;2.43;;;;;;;-0.69;100.00;101383.00;1761828;81;21060;-66
2022/12/06 09:45:49;;;;;;;7.57;3.57;;;;;;;-0.71;100.00;101379.98;1761340;81;21032;-67
2022/12/06 09:48:39;;;;;;;50.57;18.60;;;;;;;-0.84;100.00;101375.67;1760196;80;20998;-67
2022/12/06 09:51:32;;;;;;;22.50;9.30;;;;;;;-0.85;100.00;101365.96;1743814;81;21475;-68
2022/12/06 09:54:26;;;;;;;10.63;3.83;;;;;;;-0.74;100.00;101359.75;1760966;80;21038;-68
2022/12/06 09:56:58;;;;;;;;;;;;;;;-0.61;100.00;101352.09;1749353;81;21014;-68
2022/12/06 09:59:47;;;;;;;31.07;11.88;;;;;;;-0.53;100.00;101344.67;1747010;81;20427;-68
2022/12/06 10:02:56;;;;;;;17.00;7.03;;;;;;;-0.46;100.00;101346.13;1747206;81;21028;-68
2022/12/06 10:05:46;;;;;;;9.23;3.83;;;;;;;-0.37;100.00;101338.64;1760789;80;21029;-67
2022/12/06 10:08:48;;;;;;;12.77;4.33;;;;;;;-0.33;100.00;101337.12;1760406;80;21209;-67
2022/12/06 10:11:40;;;;;;;14.80;5.87;;;;;;;-0.34;100.00;101326.55;1762089;81;21037;-70
2022/12/06 10:14:31;;;;;;;10.53;3.77;;;;;;;-0.23;100.00;101339.77;1761157;81;21095;-69
2022/12/06 10:17:30;;;;;;;4.23;2.80;;;;;;;-0.15;100.00;101325.26;1762263;81;21565;-68
2022/12/06 10:20:21;;;;;;;11.77;5.20;;;;;;;-0.13;100.00;101322.05;1761655;81;21052;-68
2022/12/06 10:23:18;;;;;;;10.67;4.27;;;;;;;-0.15;100.00;101317.28;1761912;81;21008;-68
2022/12/06 10:26:11;;;;;;;9.97;4.20;;;;;;;-0.09;100.00;101312.55;1762417;81;21025;-66
2022/12/06 10:28:45;;;;;;;9.20;3.40;;;;;;;0.09;100.00;101301.95;1762528;81;21008;-68
2022/12/06 10:32:01;;;;;;;11.67;4.97;;;;;;;0.25;100.00;101306.95;1761774;81;21069;-68
2022/12/06 10:35:15;;;;;;;8.10;3.67;;;;;;;0.31;100.00;101296.48;1750946;81;21072;-72
2022/12/06 10:37:56;;;;;;;13.68;5.05;;;;;;;0.41;100.00;101292.44;1660037;86;21016;-72
2022/12/06 10:40:29;;;;;;;18.23;4.50;;;;;;;0.51;100.00;101294.16;1668936;86;21023;-73
2022/12/06 10:43:19;;;;;;;6.20;2.98;;;;;;;0.53;100.00;101297.16;1708803;82;21006;-73
2022/12/06 10:48:44;;;;;;;11.43;3.37;;;;;;;0.43;100.00;101295.88;1667749;82;21061;-71
2022/12/06 10:51:19;;;;;;;7.72;2.47;;;;;;;0.36;100.00;101303.30;1744804;82;21531;-72
2022/12/06 10:53:51;;;;;;;8.33;3.73;;;;;;;0.43;100.00;101289.71;1744384;82;21073;-72
2022/12/06 10:56:37;;;;;;;11.40;4.50;;;;;;;0.55;100.00;101294.42;1727448;81;21045;-71
2022/12/06 10:59:22;;;;;;;11.70;4.10;;;;;;;0.63;100.00;101282.06;1743598;81;21009;-71
2022/12/06 11:01:49;;;;;;;6.07;3.40;;;;;;;0.75;100.00;101293.42;1710480;83;20989;-70
2022/12/06 11:04:30;;;;;;;5.10;3.00;;;;;;;0.87;100.00;101286.62;1688438;84;21017;-73
2022/12/06 11:07:09;;;;;;;10.23;3.17;;;;;;;0.92;100.00;101284.56;1674660;86;21026;-73
2022/12/06 11:09:47;;;;;;;4.50;2.57;;;;;;;0.92;100.00;101285.89;1704273;83;21064;-75
2022/12/06 11:12:34;;;;;;;6.90;3.17;;;;;;;0.82;100.00;101287.33;1694799;85;21039;-72
2022/12/06 11:15:25;;;;;;;10.87;3.00;;;;;;;0.80;100.00;101277.20;1705900;83;21020;-72
2022/12/06 11:18:12;;;;;;;9.97;2.87;;;;;;;0.84;100.00;101264.98;1684064;84;21045;-74
2022/12/06 11:20:47;;;;;;;7.23;2.97;;;;;;;0.87;100.00;101274.16;1716880;83;21061;-71
2022/12/06 11:23:41;;;;;;;10.30;3.13;;;;;;;0.97;100.00;101271.02;1726155;83;20966;-71
2022/12/06 11:26:44;;;;;;;6.80;2.87;;;;;;;1.16;100.00;101269.60;1677010;84;21076;-71
2022/12/06 11:29:13;;;;;;;34.53;8.80;;;;;;;1.30;100.00;101262.59;1673921;84;21075;-71
2022/12/06 11:31:54;;;;;;;18.37;5.50;;;;;;;1.37;100.00;101259.61;1752460;81;21490;-71
2022/12/06 11:34:46;;;;;;;6.67;2.93;;;;;;;1.33;100.00;101255.77;1723480;82;21068;-72
2022/12/06 11:37:19;;;;;;;20.13;6.17;;;;;;;1.33;100.00;101248.26;1718257;83;21092;-68
2022/12/06 11:39:47;;;;;;;16.25;5.78;;;;;;;1.44;100.00;101250.34;1718469;82;21635;-66
2022/12/06 11:42:15;;;;;;;16.90;5.50;;;;;;;1.66;100.00;101248.69;1708925;83;21057;-67
2022/12/06 11:44:48;;;;;;;19.60;5.40;;;;;;;2.06;100.00;101242.00;1682703;84;21081;-64
2022/12/06 11:47:17;;;;;;;13.95;4.92;;;;;;;2.57;100.00;101239.09;1704181;83;21521;-64
2022/12/06 11:49:44;;;;;;;12.17;4.43;;;;;;;2.99;100.00;101229.47;1702811;83;21071;-65
2022/12/06 11:52:25;;;;;;;8.57;3.10;;;;;;;3.23;100.00;101236.92;1696529;83;21086;-67
2022/12/06 11:54:56;;;;;;;12.03;4.20;;;;;;;3.55;99.25;101236.25;1698577;83;21061;-65
2022/12/06 11:57:42;;;;;;;10.97;3.40;;;;;;;3.95;96.80;101225.70;1726608;83;20987;-76
2022/12/06 12:00:19;;;;;;;14.57;6.30;;;;;;;4.10;91.09;101226.50;1697023;83;21050;-69
2022/12/06 12:02:48;;;;;;;5.80;2.77;;;;;;;4.29;90.06;101204.73;1726449;83;21500;-63
2022/12/06 12:05:22;;;;;;;10.73;3.23;;;;;;;4.50;85.54;101209.63;1727272;83;20999;-65
2022/12/06 12:08:02;;;;;;;5.30;2.20;;;;;;;4.48;80.92;101204.83;1726217;83;21070;-65
2022/12/06 12:10:38;;;;;;;18.03;5.57;;;;;;;4.33;79.09;101197.36;1726639;83;21049;-66
2022/12/06 12:16:17;;;;;;;91.13;32.30;;;;;;;4.30;78.58;101198.89;1726526;83;21507;-65
2022/12/06 12:19:00;;;;;;;27.07;11.93;;;;;;;4.43;79.94;101198.95;1727600;83;21081;-67
2022/12/06 12:21:40;;;;;;;12.88;4.53;;;;;;;4.49;79.20;101200.72;1728142;83;21085;-67
2022/12/06 12:24:44;;;;;;;18.40;5.20;;;;;;;4.45;76.76;101197.88;1728281;83;21503;-66
2022/12/06 12:27:42;;;;;;;22.33;8.47;;;;;;;4.34;74.92;101200.42;1726665;83;20998;-67
2022/12/06 12:30:20;;;;;;;11.23;4.67;;;;;;;4.18;73.71;101198.76;1727462;83;21069;-72
2022/12/06 12:33:08;;;;;;;10.63;2.90;;;;;;;4.11;74.13;101202.80;1724304;83;21061;-73
2022/12/06 12:35:48;;;;;;;4.03;2.50;;;;;;;4.18;74.41;101199.25;1704743;84;21080;-73
2022/12/06 12:38:23;;;;;;;3.83;2.27;;;;;;;4.11;70.93;101204.62;1677180;85;21530;-73
2022/12/06 12:41:02;;;;;;;7.37;2.50;;;;;;;3.91;71.17;101200.56;1702278;84;21080;-73
2022/12/06 12:43:31;;;;;;;6.80;3.00;;;;;;;3.75;70.33;101194.88;1702823;84;21084;-73
2022/12/06 12:46:13;;;;;;;5.57;3.10;;;;;;;3.60;70.64;101203.88;1693038;84;21002;-73
2022/12/06 12:48:43;;;;;;;9.87;2.77;;;;;;;3.57;71.30;101198.23;1731179;83;21034;-73
2022/12/06 12:51:33;;;;;;;9.90;2.77;;;;;;;3.55;71.72;101201.97;1701104;84;21174;-73
2022/12/06 12:54:26;;;;;;;12.37;3.30;;;;;;;3.51;71.35;101199.97;1731585;82;21072;-73
2022/12/06 12:56:53;;;;;;;10.03;4.00;;;;;;;3.28;71.03;101199.23;1701229;84;21114;-73
2022/12/06 12:59:23;;;;;;;11.83;3.73;;;;;;;2.97;71.59;101198.43;1731574;83;21072;-74
2022/12/06 13:02:28;;;;;;;8.10;3.60;;;;;;;2.85;73.21;101191.56;1701400;84;21066;-73
2022/12/06 13:05:13;;;;;;;7.53;4.07;;;;;;;2.65;72.25;101195.41;1731849;83;21084;-74
2022/12/06 13:07:42;;;;;;;9.90;3.60;;;;;;;2.18;72.60;101198.20;1701318;84;21046;-74
2022/12/06 13:10:32;;;;;;;10.30;3.67;;;;;;;1.75;73.59;101198.84;1732227;83;21037;-73
2022/12/06 13:13:03;;;;;;;7.63;3.10;;;;;;;1.39;74.94;101212.41;1701080;84;21085;-74
2022/12/06 13:15:46;;;;;;;6.10;2.70;;;;;;;1.06;77.23;101202.61;1732108;83;21001;-73
2022/12/06 13:18:24;;;;;;;6.50;3.37;;;;;;;0.81;79.16;101209.22;1675473;84;21022;-73
2022/12/06 13:20:54;;;;;;;4.07;2.17;;;;;;;0.59;82.34;101204.64;1726445;83;21068;-73
2022/12/06 13:23:25;;;;;;;6.83;2.90;;;;;;;0.54;84.51;101200.87;1699907;84;21069;-73
2022/12/06 13:26:24;;;;;;;6.63;2.43;;;;;;;0.51;85.73;101189.04;1730899;83;21032;-72
2022/12/06 13:28:56;;;;;;;3.43;2.70;;;;;;;0.44;86.30;101191.14;1728018;83;21072;-73
2022/12/06 13:31:30;;;;;;;4.17;2.03;;;;;;;0.25;86.51;101195.67;1727045;83;21064;-73
2022/12/06 13:34:08;;;;;;;5.80;2.63;;;;;;;0.02;86.99;101188.83;1727334;83;21038;-73
2022/12/06 13:36:35;;;;;;;7.00;2.50;;;;;;;-0.26;88.15;101188.86;1722706;83;21034;-74
2022/12/06 13:39:34;;;;;;;9.50;2.80;;;;;;;-0.52;89.57;101194.92;1723962;83;21515;-74
2022/12/06 13:42:19;;;;;;;8.00;2.70;;;;;;;-0.75;91.23;101194.66;1724037;82;21014;-74
2022/12/06 13:44:53;;;;;;;3.73;2.50;;;;;;;-0.95;93.47;101190.27;1724925;83;21544;-74
2022/12/06 13:47:35;;;;;;;4.30;2.40;;;;;;;-1.15;95.59;101185.38;1728521;83;21085;-74
2022/12/06 13:50:20;;;;;;;7.40;2.83;;;;;;;-1.28;97.44;101189.95;1728635;83;21006;-74
2022/12/06 13:52:53;;;;;;;4.70;3.10;;;;;;;-1.42;98.90;101190.08;1728796;83;21038;-75
2022/12/06 13:55:28;;;;;;;14.18;2.90;;;;;;;-1.56;100.00;101185.83;1728546;83;21002;-74
2022/12/06 13:58:01;;;;;;;5.23;3.00;;;;;;;-1.67;100.00;101180.13;1728664;83;21519;-74
2022/12/06 14:00:33;;;;;;;11.48;3.85;;;;;;;-1.76;100.00;101181.38;1720270;83;21106;-73
2022/12/06 14:03:20;;;;;;;22.20;6.08;;;;;;;-1.86;100.00;101172.96;1711434;84;21025;-73
2022/12/06 14:06:05;;;;;;;17.47;4.90;;;;;;;-1.94;100.00;101165.30;1683442;85;21331;-74
2022/12/06 14:37:35;;;;;;;11.93;3.33;;;;;;;-2.03;100.00;101160.86;1753695;82;23034;-65
2022/12/06 14:42:59;;;;;;;25.37;4.90;;;;;;;-2.07;100.00;101155.27;1728778;83;21042;-64
2022/12/06 14:43:02;;;;;;;20.20;4.57;;;;;;;-2.14;100.00;101153.35;1728349;83;21066;-66
2022/12/06 14:45:31;;;;;;;10.17;3.60;;;;;;;-2.25;100.00;101156.41;1728999;83;21398;-67
2022/12/06 20:06:59;;;;;;;6.23;3.30;;;;;;;-4.31;100.00;101018.57;1818615;78;22892;-71
2022/12/06 20:09:28;;;;;;;7.93;3.07;;;;;;;-4.31;100.00;101022.06;1762925;81;21021;-72
2022/12/06 20:12:00;;;;;;;8.20;3.20;;;;;;;-4.33;100.00;101027.01;1762990;81;21499;-71
2022/12/06 20:14:33;;;;;;;6.00;2.77;;;;;;;-4.35;100.00;101020.92;1763206;81;21032;-71
2022/12/06 20:17:02;;;;;;;12.75;4.03;;;;;;;-4.36;100.00;101011.26;1763134;81;21076;-72
2022/12/06 20:19:30;;;;;;;7.17;2.80;;;;;;;-4.36;100.00;101012.58;1762893;79;21502;-73
2022/12/06 20:21:57;;;;;;;7.23;3.10;;;;;;;-4.36;100.00;101023.14;1762949;81;21021;-72
2022/12/06 20:24:25;;;;;;;6.03;2.90;;;;;;;-4.37;100.00;101020.08;1763130;81;21486;-72
2022/12/06 20:26:53;;;;;;;4.27;2.80;;;;;;;-4.36;100.00;101026.63;1763087;81;21017;-71
2022/12/06 20:29:21;;;;;;;5.53;2.83;;;;;;;-4.34;100.00;101027.44;1762944;81;21021;-71
2022/12/06 20:31:51;;;;;;;7.13;2.93;;;;;;;-4.34;100.00;101015.56;1763130;81;20982;-70
2022/12/06 20:34:18;;;;;;;6.60;3.30;;;;;;;-4.32;100.00;101014.19;1762985;81;21013;-72